sensor_id;sensor_type;location;lat;lon;timestamp;pressure;altitude;pressure_sealevel;temperature;humidity
5814;BME280;2933;52.302;8.134;2023-10-31T00:03:03;98301.06;;;11.08;100.00
5814;BME280;2933;52.302;8.134;2023-10-31T00:08:06;98336.88;;;11.15;100.00
5814;BME280;2933;52.302;8.134;2023-10-31T00:13:09;98345.38;;;11.36;100.00
5814;BME280;2933;52.302;8.134;2023-10-31T00:18:12;98336.28;;;11.22;100.00
5814;BME280;2933;52.302;8.134;2023-10-31T00:23:15;98326.63;;;11.22;100.00
5814;BME280;2933;52.302;8.134;2023-10-31T00:28:18;98315.59;;;11.10;100.00
5814;BME280;2933;52.302;8.134;2023-10-31T00:33:21;98347.63;;;11.30;100.00
5814;BME280;2933;52.302;8.134;2023-10-31T00:38:28;98308.22;;;11.06;100.00
5814;BME280;2933;52.302;8.134;2023-10-31T00:43:35;98347.19;;;11.35;100.00
5814;BME280;2933;52.302;8.134;2023-10-31T00:48:39;98347.47;;;11.50;100.00
5814;BME280;2933;52.302;8.134;2023-10-31T00:53:46;98293.78;;;11.20;100.00
5814;BME280;2933;52.302;8.134;2023-10-31T00:59:00;98332.06;;;11.47;100.00
5814;BME280;2933;52.302;8.134;2023-10-31T01:04:14;98277.75;;;11.14;100.00
5814;BME280;2933;52.302;8.134;2023-10-31T01:09:16;98323.41;;;11.46;100.00
5814;BME280;2933;52.302;8.134;2023-10-31T01:14:24;98294.59;;;11.38;100.00
5814;BME280;2933;52.302;8.134;2023-10-31T01:19:28;98310.25;;;11.38;100.00
5814;BME280;2933;52.302;8.134;2023-10-31T01:24:31;98305.56;;;11.42;100.00
5814;BME280;2933;52.302;8.134;2023-10-31T01:29:33;98295.63;;;11.45;100.00
5814;BME280;2933;52.302;8.134;2023-10-31T01:34:39;98272.13;;;11.27;100.00
5814;BME280;2933;52.302;8.134;2023-10-31T01:45:01;98279.56;;;11.40;100.00
5814;BME280;2933;52.302;8.134;2023-10-31T01:50:06;98246.47;;;11.23;100.00
5814;BME280;2933;52.302;8.134;2023-10-31T01:55:11;98245.94;;;11.19;100.00
5814;BME280;2933;52.302;8.134;2023-10-31T02:00:17;98274.59;;;11.55;100.00
5814;BME280;2933;52.302;8.134;2023-10-31T02:05:23;98239.78;;;11.28;100.00
5814;BME280;2933;52.302;8.134;2023-10-31T02:10:26;98262.41;;;11.38;100.00
5814;BME280;2933;52.302;8.134;2023-10-31T02:15:28;98268.97;;;11.42;100.00
5814;BME280;2933;52.302;8.134;2023-10-31T02:20:32;98253.69;;;11.29;100.00
5814;BME280;2933;52.302;8.134;2023-10-31T02:25:37;98246.53;;;11.13;100.00
5814;BME280;2933;52.302;8.134;2023-10-31T02:30:40;98226.69;;;11.02;100.00
5814;BME280;2933;52.302;8.134;2023-10-31T02:35:45;98224.44;;;11.07;100.00
5814;BME280;2933;52.302;8.134;2023-10-31T02:40:50;98245.66;;;11.04;100.00
5814;BME280;2933;52.302;8.134;2023-10-31T02:45:52;98250.84;;;10.78;100.00
5814;BME280;2933;52.302;8.134;2023-10-31T02:50:59;98243.50;;;10.45;100.00
5814;BME280;2933;52.302;8.134;2023-10-31T02:56:02;98271.69;;;10.42;100.00
5814;BME280;2933;52.302;8.134;2023-10-31T03:01:08;98294.81;;;10.27;100.00
5814;BME280;2933;52.302;8.134;2023-10-31T03:06:10;98251.09;;;9.83;100.00
5814;BME280;2933;52.302;8.134;2023-10-31T03:11:21;98285.69;;;9.85;100.00
5814;BME280;2933;52.302;8.134;2023-10-31T03:16:25;98331.75;;;9.94;100.00
5814;BME280;2933;52.302;8.134;2023-10-31T03:21:28;98343.63;;;9.79;100.00
5814;BME280;2933;52.302;8.134;2023-10-31T03:26:32;98362.84;;;9.58;100.00
5814;BME280;2933;52.302;8.134;2023-10-31T03:31:42;98329.13;;;9.17;100.00
5814;BME280;2933;52.302;8.134;2023-10-31T03:36:43;98379.06;;;9.13;100.00
5814;BME280;2933;52.302;8.134;2023-10-31T03:41:54;98362.47;;;8.94;100.00
5814;BME280;2933;52.302;8.134;2023-10-31T03:46:56;98399.72;;;8.95;100.00
5814;BME280;2933;52.302;8.134;2023-10-31T03:51:57;98408.22;;;8.87;100.00
5814;BME280;2933;52.302;8.134;2023-10-31T03:57:01;98395.13;;;8.67;100.00
5814;BME280;2933;52.302;8.134;2023-10-31T04:02:02;98405.94;;;8.63;100.00
5814;BME280;2933;52.302;8.134;2023-10-31T04:07:04;98433.75;;;8.62;100.00
5814;BME280;2933;52.302;8.134;2023-10-31T04:12:09;98442.31;;;8.74;100.00
5814;BME280;2933;52.302;8.134;2023-10-31T04:17:11;98444.72;;;8.66;100.00
5814;BME280;2933;52.302;8.134;2023-10-31T04:22:13;98417.34;;;8.40;100.00
5814;BME280;2933;52.302;8.134;2023-10-31T04:27:16;98419.97;;;8.40;100.00
5814;BME280;2933;52.302;8.134;2023-10-31T04:32:19;98463.09;;;8.64;100.00
5814;BME280;2933;52.302;8.134;2023-10-31T04:37:21;98477.56;;;8.57;100.00
5814;BME280;2933;52.302;8.134;2023-10-31T04:42:24;98464.84;;;8.64;100.00
5814;BME280;2933;52.302;8.134;2023-10-31T04:47:27;98474.97;;;8.57;100.00
5814;BME280;2933;52.302;8.134;2023-10-31T04:52:29;98498.88;;;8.72;100.00
5814;BME280;2933;52.302;8.134;2023-10-31T04:57:33;98490.41;;;8.49;100.00
5814;BME280;2933;52.302;8.134;2023-10-31T05:02:35;98503.22;;;8.62;100.00
5814;BME280;2933;52.302;8.134;2023-10-31T05:07:42;98533.28;;;8.76;100.00
5814;BME280;2933;52.302;8.134;2023-10-31T05:12:47;98512.34;;;8.56;100.00
5814;BME280;2933;52.302;8.134;2023-10-31T05:17:49;98526.94;;;8.68;100.00
5814;BME280;2933;52.302;8.134;2023-10-31T05:22:51;98520.97;;;8.56;100.00
5814;BME280;2933;52.302;8.134;2023-10-31T05:27:55;98550.56;;;8.77;100.00
5814;BME280;2933;52.302;8.134;2023-10-31T05:32:58;98538.50;;;8.76;100.00
5814;BME280;2933;52.302;8.134;2023-10-31T05:38:01;98544.09;;;8.71;100.00
5814;BME280;2933;52.302;8.134;2023-10-31T05:43:24;98529.69;;;8.67;100.00
5814;BME280;2933;52.302;8.134;2023-10-31T05:48:28;98554.06;;;8.66;100.00
5814;BME280;2933;52.302;8.134;2023-10-31T05:53:44;98569.28;;;8.70;100.00
5814;BME280;2933;52.302;8.134;2023-10-31T05:58:56;98568.91;;;8.54;100.00
5814;BME280;2933;52.302;8.134;2023-10-31T06:03:58;98578.94;;;8.59;100.00
5814;BME280;2933;52.302;8.134;2023-10-31T06:09:02;98597.00;;;8.71;100.00
5814;BME280;2933;52.302;8.134;2023-10-31T06:14:09;98584.28;;;8.57;100.00
5814;BME280;2933;52.302;8.134;2023-10-31T06:19:21;98602.16;;;8.50;100.00
5814;BME280;2933;52.302;8.134;2023-10-31T06:24:38;98586.00;;;8.47;100.00
5814;BME280;2933;52.302;8.134;2023-10-31T06:29:50;98621.34;;;8.49;100.00
5814;BME280;2933;52.302;8.134;2023-10-31T06:35:00;98631.50;;;8.52;100.00
5814;BME280;2933;52.302;8.134;2023-10-31T06:40:27;98636.25;;;8.47;100.00
5814;BME280;2933;52.302;8.134;2023-10-31T06:45:48;98636.13;;;8.49;100.00
5814;BME280;2933;52.302;8.134;2023-10-31T06:51:08;98645.94;;;8.45;100.00
5814;BME280;2933;52.302;8.134;2023-10-31T06:56:41;98676.19;;;8.57;100.00
5814;BME280;2933;52.302;8.134;2023-10-31T07:02:06;98692.84;;;8.66;100.00
5814;BME280;2933;52.302;8.134;2023-10-31T07:07:23;98665.47;;;8.51;100.00
5814;BME280;2933;52.302;8.134;2023-10-31T07:12:34;98653.84;;;8.55;100.00
5814;BME280;2933;52.302;8.134;2023-10-31T07:33:11;98672.97;;;8.65;100.00
5814;BME280;2933;52.302;8.134;2023-10-31T07:38:23;98681.34;;;8.69;100.00
5814;BME280;2933;52.302;8.134;2023-10-31T07:43:42;98732.88;;;9.08;100.00
5814;BME280;2933;52.302;8.134;2023-10-31T07:54:47;98710.97;;;8.89;100.00
5814;BME280;2933;52.302;8.134;2023-10-31T07:59:49;98721.25;;;8.91;100.00
5814;BME280;2933;52.302;8.134;2023-10-31T08:04:52;98727.53;;;8.88;100.00
5814;BME280;2933;52.302;8.134;2023-10-31T08:09:55;98738.78;;;9.10;100.00
5814;BME280;2933;52.302;8.134;2023-10-31T08:14:58;98696.22;;;8.78;100.00
5814;BME280;2933;52.302;8.134;2023-10-31T08:20:00;98755.84;;;9.14;100.00
5814;BME280;2933;52.302;8.134;2023-10-31T08:25:07;98741.88;;;9.03;100.00
5814;BME280;2933;52.302;8.134;2023-10-31T08:30:17;98733.69;;;8.87;100.00
5814;BME280;2933;52.302;8.134;2023-10-31T08:35:20;98724.34;;;8.84;100.00
5814;BME280;2933;52.302;8.134;2023-10-31T08:40:40;98761.16;;;9.12;100.00
5814;BME280;2933;52.302;8.134;2023-10-31T08:45:55;98763.13;;;9.20;100.00
5814;BME280;2933;52.302;8.134;2023-10-31T08:50:57;98784.09;;;9.40;100.00
5814;BME280;2933;52.302;8.134;2023-10-31T08:56:00;98758.59;;;9.22;100.00
5814;BME280;2933;52.302;8.134;2023-10-31T09:01:04;98789.88;;;9.43;100.00
5814;BME280;2933;52.302;8.134;2023-10-31T09:06:10;98796.38;;;9.49;100.00
5814;BME280;2933;52.302;8.134;2023-10-31T09:11:14;98810.06;;;9.51;100.00
5814;BME280;2933;52.302;8.134;2023-10-31T09:16:17;98808.81;;;9.45;100.00
5814;BME280;2933;52.302;8.134;2023-10-31T09:21:19;98784.44;;;9.25;100.00
5814;BME280;2933;52.302;8.134;2023-10-31T09:26:22;98828.22;;;9.52;100.00
5814;BME280;2933;52.302;8.134;2023-10-31T09:31:24;98823.63;;;9.45;100.00
5814;BME280;2933;52.302;8.134;2023-10-31T09:36:25;98846.34;;;9.54;100.00
5814;BME280;2933;52.302;8.134;2023-10-31T09:41:29;98853.84;;;9.47;100.00
5814;BME280;2933;52.302;8.134;2023-10-31T09:46:35;98853.50;;;9.41;100.00
5814;BME280;2933;52.302;8.134;2023-10-31T09:51:42;98865.66;;;9.51;100.00
5814;BME280;2933;52.302;8.134;2023-10-31T09:56:45;98870.44;;;9.46;100.00
5814;BME280;2933;52.302;8.134;2023-10-31T10:01:52;98848.44;;;9.39;100.00
5814;BME280;2933;52.302;8.134;2023-10-31T10:06:58;98869.16;;;9.41;100.00
5814;BME280;2933;52.302;8.134;2023-10-31T10:12:02;98854.91;;;9.45;100.00
5814;BME280;2933;52.302;8.134;2023-10-31T10:17:14;98884.34;;;9.99;100.00
5814;BME280;2933;52.302;8.134;2023-10-31T10:22:20;98905.63;;;10.25;100.00
5814;BME280;2933;52.302;8.134;2023-10-31T10:27:23;98911.63;;;10.16;100.00
5814;BME280;2933;52.302;8.134;2023-10-31T10:32:27;98901.22;;;9.95;100.00
5814;BME280;2933;52.302;8.134;2023-10-31T10:37:29;98903.91;;;9.83;100.00
5814;BME280;2933;52.302;8.134;2023-10-31T10:42:39;98920.09;;;9.87;100.00
5814;BME280;2933;52.302;8.134;2023-10-31T10:47:47;98951.34;;;10.19;100.00
5814;BME280;2933;52.302;8.134;2023-10-31T10:52:54;98956.94;;;10.36;100.00
5814;BME280;2933;52.302;8.134;2023-10-31T10:58:00;98947.56;;;10.33;100.00
5814;BME280;2933;52.302;8.134;2023-10-31T11:03:05;98952.22;;;10.30;100.00
5814;BME280;2933;52.302;8.134;2023-10-31T11:08:08;98969.63;;;10.41;100.00
5814;BME280;2933;52.302;8.134;2023-10-31T11:13:12;98951.94;;;10.33;100.00
5814;BME280;2933;52.302;8.134;2023-10-31T11:18:14;98974.13;;;10.70;100.00
5814;BME280;2933;52.302;8.134;2023-10-31T11:23:16;98963.34;;;10.94;100.00
5814;BME280;2933;52.302;8.134;2023-10-31T11:28:19;98984.88;;;11.17;100.00
5814;BME280;2933;52.302;8.134;2023-10-31T11:33:21;98999.31;;;11.21;100.00
5814;BME280;2933;52.302;8.134;2023-10-31T11:38:30;98989.56;;;11.23;100.00
5814;BME280;2933;52.302;8.134;2023-10-31T11:43:54;99005.66;;;11.28;100.00
5814;BME280;2933;52.302;8.134;2023-10-31T11:48:57;98983.59;;;11.02;100.00
5814;BME280;2933;52.302;8.134;2023-10-31T11:54:01;99019.66;;;11.08;100.00
5814;BME280;2933;52.302;8.134;2023-10-31T11:59:05;99033.22;;;11.32;100.00
5814;BME280;2933;52.302;8.134;2023-10-31T12:04:07;99035.03;;;11.61;100.00
5814;BME280;2933;52.302;8.134;2023-10-31T12:09:09;99035.16;;;11.70;100.00
5814;BME280;2933;52.302;8.134;2023-10-31T12:14:18;99021.13;;;11.80;100.00
5814;BME280;2933;52.302;8.134;2023-10-31T12:19:20;99042.09;;;12.00;100.00
5814;BME280;2933;52.302;8.134;2023-10-31T12:24:22;99057.78;;;11.90;100.00
5814;BME280;2933;52.302;8.134;2023-10-31T12:29:25;99044.41;;;11.74;100.00
5814;BME280;2933;52.302;8.134;2023-10-31T12:34:27;99036.13;;;11.49;100.00
5814;BME280;2933;52.302;8.134;2023-10-31T12:39:28;99073.72;;;11.58;100.00
5814;BME280;2933;52.302;8.134;2023-10-31T12:44:35;99065.56;;;11.41;100.00
5814;BME280;2933;52.302;8.134;2023-10-31T12:49:37;99061.53;;;11.37;100.00
5814;BME280;2933;52.302;8.134;2023-10-31T12:54:39;99065.31;;;11.54;100.00
5814;BME280;2933;52.302;8.134;2023-10-31T12:59:42;99046.56;;;11.39;100.00
5814;BME280;2933;52.302;8.134;2023-10-31T13:04:43;99075.94;;;11.62;100.00
5814;BME280;2933;52.302;8.134;2023-10-31T13:09:45;99076.44;;;11.46;100.00
5814;BME280;2933;52.302;8.134;2023-10-31T13:14:54;99085.94;;;11.57;100.00
5814;BME280;2933;52.302;8.134;2023-10-31T13:19:59;99048.25;;;11.60;100.00
5814;BME280;2933;52.302;8.134;2023-10-31T13:25:00;99060.53;;;11.79;100.00
5814;BME280;2933;52.302;8.134;2023-10-31T13:30:07;99091.56;;;12.13;100.00
5814;BME280;2933;52.302;8.134;2023-10-31T13:35:09;99100.50;;;12.20;100.00
5814;BME280;2933;52.302;8.134;2023-10-31T13:40:11;99109.88;;;12.03;100.00
5814;BME280;2933;52.302;8.134;2023-10-31T13:45:15;99116.88;;;11.93;100.00
5814;BME280;2933;52.302;8.134;2023-10-31T13:50:19;99089.38;;;11.07;100.00
5814;BME280;2933;52.302;8.134;2023-10-31T13:55:21;99122.16;;;11.21;100.00
5814;BME280;2933;52.302;8.134;2023-10-31T14:00:25;99114.50;;;10.98;100.00
5814;BME280;2933;52.302;8.134;2023-10-31T14:05:26;99128.78;;;10.94;100.00
5814;BME280;2933;52.302;8.134;2023-10-31T14:10:28;99147.66;;;10.98;100.00
5814;BME280;2933;52.302;8.134;2023-10-31T14:15:33;99126.34;;;10.72;100.00
5814;BME280;2933;52.302;8.134;2023-10-31T14:20:34;99121.22;;;10.70;100.00
5814;BME280;2933;52.302;8.134;2023-10-31T14:25:36;99106.47;;;10.59;100.00
5814;BME280;2933;52.302;8.134;2023-10-31T14:30:40;99143.31;;;10.87;100.00
5814;BME280;2933;52.302;8.134;2023-10-31T14:35:41;99167.22;;;10.82;100.00
5814;BME280;2933;52.302;8.134;2023-10-31T14:40:43;99156.00;;;10.92;100.00
5814;BME280;2933;52.302;8.134;2023-10-31T14:45:46;99145.50;;;10.82;100.00
5814;BME280;2933;52.302;8.134;2023-10-31T14:50:48;99157.47;;;10.85;100.00
5814;BME280;2933;52.302;8.134;2023-10-31T14:55:50;99193.47;;;11.02;100.00
5814;BME280;2933;52.302;8.134;2023-10-31T15:00:53;99173.84;;;10.87;100.00
5814;BME280;2933;52.302;8.134;2023-10-31T15:05:57;99202.78;;;10.95;100.00
5814;BME280;2933;52.302;8.134;2023-10-31T15:10:59;99169.22;;;10.58;100.00
5814;BME280;2933;52.302;8.134;2023-10-31T15:16:02;99204.69;;;10.93;100.00
5814;BME280;2933;52.302;8.134;2023-10-31T15:21:04;99198.41;;;10.84;100.00
5814;BME280;2933;52.302;8.134;2023-10-31T15:26:06;99204.22;;;10.66;100.00
5814;BME280;2933;52.302;8.134;2023-10-31T15:31:14;99220.34;;;10.72;100.00
5814;BME280;2933;52.302;8.134;2023-10-31T15:36:15;99232.94;;;10.66;100.00
5814;BME280;2933;52.302;8.134;2023-10-31T15:41:17;99224.47;;;10.53;100.00
5814;BME280;2933;52.302;8.134;2023-10-31T15:46:23;99251.72;;;10.60;100.00
5814;BME280;2933;52.302;8.134;2023-10-31T15:51:24;99257.56;;;10.53;100.00
5814;BME280;2933;52.302;8.134;2023-10-31T15:56:26;99266.63;;;10.37;100.00
5814;BME280;2933;52.302;8.134;2023-10-31T16:01:40;99256.06;;;10.27;100.00
5814;BME280;2933;52.302;8.134;2023-10-31T16:06:46;99278.84;;;10.37;100.00
5814;BME280;2933;52.302;8.134;2023-10-31T16:11:55;99262.72;;;10.20;100.00
5814;BME280;2933;52.302;8.134;2023-10-31T16:17:00;99276.34;;;10.35;100.00
5814;BME280;2933;52.302;8.134;2023-10-31T16:22:05;99287.25;;;10.40;100.00
5814;BME280;2933;52.302;8.134;2023-10-31T16:27:15;99262.72;;;10.09;100.00
5814;BME280;2933;52.302;8.134;2023-10-31T16:32:30;99293.91;;;10.22;100.00
5814;BME280;2933;52.302;8.134;2023-10-31T16:37:32;99280.03;;;9.87;100.00
5814;BME280;2933;52.302;8.134;2023-10-31T16:42:34;99295.13;;;9.83;100.00
5814;BME280;2933;52.302;8.134;2023-10-31T16:47:44;99300.78;;;9.66;100.00
5814;BME280;2933;52.302;8.134;2023-10-31T16:52:46;99321.16;;;9.72;100.00
5814;BME280;2933;52.302;8.134;2023-10-31T16:57:48;99338.84;;;9.68;100.00
5814;BME280;2933;52.302;8.134;2023-10-31T17:02:52;99356.59;;;9.63;100.00
5814;BME280;2933;52.302;8.134;2023-10-31T17:07:54;99307.13;;;9.28;100.00
5814;BME280;2933;52.302;8.134;2023-10-31T17:12:56;99358.59;;;9.48;100.00
5814;BME280;2933;52.302;8.134;2023-10-31T17:17:59;99371.75;;;9.47;100.00
5814;BME280;2933;52.302;8.134;2023-10-31T17:23:01;99328.38;;;9.10;100.00
5814;BME280;2933;52.302;8.134;2023-10-31T17:28:04;99363.59;;;9.27;100.00
5814;BME280;2933;52.302;8.134;2023-10-31T17:33:07;99395.66;;;9.41;100.00
5814;BME280;2933;52.302;8.134;2023-10-31T17:38:09;99394.06;;;9.27;100.00
5814;BME280;2933;52.302;8.134;2023-10-31T17:43:11;99410.22;;;9.43;100.00
5814;BME280;2933;52.302;8.134;2023-10-31T17:48:14;99357.53;;;9.15;100.00
5814;BME280;2933;52.302;8.134;2023-10-31T17:53:27;99399.28;;;9.27;100.00
5814;BME280;2933;52.302;8.134;2023-10-31T17:58:34;99360.91;;;9.04;100.00
5814;BME280;2933;52.302;8.134;2023-10-31T18:03:41;99398.50;;;9.37;100.00
5814;BME280;2933;52.302;8.134;2023-10-31T18:08:46;99415.19;;;9.35;100.00
5814;BME280;2933;52.302;8.134;2023-10-31T18:13:48;99398.69;;;9.34;100.00
5814;BME280;2933;52.302;8.134;2023-10-31T18:18:51;99388.00;;;9.26;100.00
5814;BME280;2933;52.302;8.134;2023-10-31T18:23:56;99392.72;;;9.21;100.00
5814;BME280;2933;52.302;8.134;2023-10-31T18:28:58;99376.84;;;9.13;100.00
5814;BME280;2933;52.302;8.134;2023-10-31T18:34:01;99384.84;;;9.10;100.00
5814;BME280;2933;52.302;8.134;2023-10-31T18:39:06;99384.16;;;9.08;100.00
5814;BME280;2933;52.302;8.134;2023-10-31T18:44:10;99404.47;;;9.27;100.00
5814;BME280;2933;52.302;8.134;2023-10-31T18:49:14;99382.66;;;9.16;100.00
5814;BME280;2933;52.302;8.134;2023-10-31T18:54:16;99387.75;;;9.18;100.00
5814;BME280;2933;52.302;8.134;2023-10-31T18:59:34;99410.03;;;9.46;100.00
5814;BME280;2933;52.302;8.134;2023-10-31T19:04:51;99418.06;;;9.43;100.00
5814;BME280;2933;52.302;8.134;2023-10-31T19:09:57;99417.59;;;9.49;100.00
5814;BME280;2933;52.302;8.134;2023-10-31T19:15:07;99389.00;;;9.12;100.00
5814;BME280;2933;52.302;8.134;2023-10-31T19:20:22;99398.75;;;8.97;100.00
5814;BME280;2933;52.302;8.134;2023-10-31T19:25:24;99437.75;;;9.23;100.00
5814;BME280;2933;52.302;8.134;2023-10-31T19:30:32;99423.59;;;9.14;100.00
5814;BME280;2933;52.302;8.134;2023-10-31T19:35:35;99437.75;;;9.23;100.00
5814;BME280;2933;52.302;8.134;2023-10-31T19:40:37;99434.69;;;9.29;100.00
5814;BME280;2933;52.302;8.134;2023-10-31T19:45:40;99451.69;;;9.35;100.00
5814;BME280;2933;52.302;8.134;2023-10-31T19:50:52;99414.44;;;9.09;100.00
5814;BME280;2933;52.302;8.134;2023-10-31T19:56:02;99424.44;;;9.15;100.00
5814;BME280;2933;52.302;8.134;2023-10-31T20:01:06;99450.78;;;9.23;100.00
5814;BME280;2933;52.302;8.134;2023-10-31T20:06:13;99434.75;;;9.16;100.00
5814;BME280;2933;52.302;8.134;2023-10-31T20:11:16;99429.13;;;9.23;100.00
5814;BME280;2933;52.302;8.134;2023-10-31T20:16:20;99405.44;;;9.01;100.00
5814;BME280;2933;52.302;8.134;2023-10-31T20:21:29;99417.53;;;8.89;100.00
5814;BME280;2933;52.302;8.134;2023-10-31T20:26:47;99416.78;;;9.00;100.00
5814;BME280;2933;52.302;8.134;2023-10-31T20:31:59;99436.41;;;9.17;100.00
5814;BME280;2933;52.302;8.134;2023-10-31T20:37:09;99456.28;;;9.31;100.00
5814;BME280;2933;52.302;8.134;2023-10-31T20:42:28;99407.06;;;9.02;100.00
5814;BME280;2933;52.302;8.134;2023-10-31T20:47:44;99448.78;;;9.27;100.00
5814;BME280;2933;52.302;8.134;2023-10-31T20:52:55;99449.53;;;9.29;100.00
5814;BME280;2933;52.302;8.134;2023-10-31T20:58:05;99415.69;;;9.16;100.00
5814;BME280;2933;52.302;8.134;2023-10-31T21:03:09;99448.97;;;9.36;100.00
5814;BME280;2933;52.302;8.134;2023-10-31T21:08:15;99416.66;;;9.26;100.00
5814;BME280;2933;52.302;8.134;2023-10-31T21:13:16;99430.53;;;9.27;100.00
5814;BME280;2933;52.302;8.134;2023-10-31T21:18:19;99443.78;;;9.24;100.00
5814;BME280;2933;52.302;8.134;2023-10-31T21:23:23;99449.28;;;9.32;100.00
5814;BME280;2933;52.302;8.134;2023-10-31T21:28:40;99462.56;;;9.29;100.00
5814;BME280;2933;52.302;8.134;2023-10-31T21:39:20;99453.72;;;9.43;100.00
5814;BME280;2933;52.302;8.134;2023-10-31T21:44:37;99433.47;;;9.22;100.00
5814;BME280;2933;52.302;8.134;2023-10-31T21:49:48;99454.78;;;9.40;100.00
5814;BME280;2933;52.302;8.134;2023-10-31T21:54:57;99460.25;;;9.48;100.00
5814;BME280;2933;52.302;8.134;2023-10-31T21:59:59;99457.16;;;9.43;100.00
5814;BME280;2933;52.302;8.134;2023-10-31T22:05:04;99445.91;;;9.43;100.00
5814;BME280;2933;52.302;8.134;2023-10-31T22:10:15;99453.41;;;9.47;100.00
5814;BME280;2933;52.302;8.134;2023-10-31T22:15:18;99417.34;;;9.17;100.00
5814;BME280;2933;52.302;8.134;2023-10-31T22:20:22;99426.88;;;9.29;100.00
5814;BME280;2933;52.302;8.134;2023-10-31T22:25:28;99419.28;;;9.26;100.00
5814;BME280;2933;52.302;8.134;2023-10-31T22:48:20;99403.44;;;9.29;100.00
5814;BME280;2933;52.302;8.134;2023-10-31T22:53:49;99445.00;;;9.55;100.00
5814;BME280;2933;52.302;8.134;2023-10-31T22:59:31;99400.00;;;9.29;100.00
5814;BME280;2933;52.302;8.134;2023-10-31T23:11:00;99402.09;;;9.24;100.00
5814;BME280;2933;52.302;8.134;2023-10-31T23:16:59;99432.53;;;9.47;100.00
5814;BME280;2933;52.302;8.134;2023-10-31T23:22:31;99429.38;;;9.55;100.00
5814;BME280;2933;52.302;8.134;2023-10-31T23:27:36;99424.00;;;9.45;100.00
5814;BME280;2933;52.302;8.134;2023-10-31T23:32:40;99398.50;;;9.37;100.00
5814;BME280;2933;52.302;8.134;2023-10-31T23:44:11;99389.06;;;9.24;100.00
5814;BME280;2933;52.302;8.134;2023-10-31T23:49:48;99382.13;;;9.11;100.00
5814;BME280;2933;52.302;8.134;2023-10-31T23:54:53;99394.19;;;9.25;100.00
